Three Bridges, Louisiana
Current Conditions -  °F | °C
As of 3:15 AM on Sunday 26 Oct 2014 (Local Time) from KIER Reporting Station
Clear Clear  
Wind Chill: 56°   Ceiling: Unl
Heat Index: 56°   Visibility: 10mi
Dew Point: 56°   Wind: 0mph
Humidity: 99%   Direction: NA
Pressure: 30.06"   Gusts: NA
Location:  31.6668°N, 92.8023°W
Report Text: KIER 260815Z AUTO 00000KT 10SM CLR 14/13 A3006 RMK AO2 T01360134
Loading
Personal Weather Stations






























Interactive Weather Map
Tropical Storm Tracking
New forecast layout! Learn more

10-Day Weather Forecast

Advertisements
Track Severe Weather on mobile